Time;durP1;ratioP1;P1;durP2;ratioP2;P2;SDS_P1;SDS_P2;PMS_P1;PMS_P2;Temp;Humidity;BMP_temperature;BMP_pressure;BME280_temperature;BME280_humidity;BME280_pressure;Samples;Min_cycle;Max_cycle;Signal;HPM_P1;HPM_P2
2022/09/30 00:05:42;;;;;;;13.7;16.1;;;;;;;10.1;88.2;98010;;;;
2022/09/30 00:15:42;;;;;;;15.9;20.3;;;;;;;10.2;88.5;98000;;;;
2022/09/30 00:26:42;;;;;;;15.9;20.3;;;;;;;10.2;88.8;98000;;;;
2022/09/30 00:36:42;;;;;;;15.9;20.3;;;;;;;10.2;88.9;98000;;;;
2022/09/30 00:47:42;;;;;;;14.6;18.4;;;;;;;10.3;88.8;97990;;;;
2022/09/30 00:57:42;;;;;;;14.6;18.4;;;;;;;10.2;88.9;98010;;;;
2022/09/30 01:07:42;;;;;;;14.6;18.4;;;;;;;10.3;88.8;98020;;;;
2022/09/30 01:18:42;;;;;;;15.4;20.7;;;;;;;10.5;88.6;98000;;;;
2022/09/30 01:29:42;;;;;;;15.4;20.7;;;;;;;10.5;88.4;98020;;;;
2022/09/30 01:39:42;;;;;;;16.1;20.4;;;;;;;10.4;88.7;98010;;;;
2022/09/30 01:49:42;;;;;;;16.1;20.4;;;;;;;10.5;88.9;98020;;;;
2022/09/30 01:59:42;;;;;;;16.1;20.4;;;;;;;10.7;88.5;98020;;;;
2022/09/30 02:09:42;;;;;;;14.8;18.5;;;;;;;10.7;88.1;98010;;;;
2022/09/30 02:20:42;;;;;;;14.8;18.5;;;;;;;10.6;88.2;98010;;;;
2022/09/30 02:30:42;;;;;;;14.8;18.5;;;;;;;10.6;88.3;98010;;;;
2022/09/30 02:41:42;;;;;;;14.4;18.5;;;;;;;10.5;88.7;98010;;;;
2022/09/30 02:51:42;;;;;;;14.4;18.5;;;;;;;10.6;88.7;98020;;;;
2022/09/30 03:01:42;;;;;;;14.4;18.5;;;;;;;10.6;88.7;98010;;;;
2022/09/30 03:11:42;;;;;;;14.5;18.4;;;;;;;10.5;89.1;98020;;;;
2022/09/30 03:22:42;;;;;;;14.5;18.4;;;;;;;10.5;89.3;98030;;;;
2022/09/30 03:32:42;;;;;;;14.5;18.4;;;;;;;10.6;89.3;98040;;;;
2022/09/30 03:43:42;;;;;;;14.2;18.8;;;;;;;10.7;89.3;98030;;;;
2022/09/30 03:53:42;;;;;;;14.2;18.8;;;;;;;10.7;89.4;98040;;;;
2022/09/30 04:04:42;;;;;;;14.2;18.8;;;;;;;10.8;89.3;98050;;;;
2022/09/30 04:14:42;;;;;;;16.3;20.9;;;;;;;10.8;89.4;98060;;;;
2022/09/30 04:24:42;;;;;;;16.3;20.9;;;;;;;10.9;89.4;98050;;;;
2022/09/30 04:35:42;;;;;;;16.3;20.9;;;;;;;10.9;89.7;98050;;;;
2022/09/30 04:46:42;;;;;;;16.9;23;;;;;;;10.9;89.9;98060;;;;
2022/09/30 04:57:42;;;;;;;16.9;23;;;;;;;10.9;89.8;98070;;;;
2022/09/30 05:07:42;;;;;;;16.9;23;;;;;;;11;90;98060;;;;
2022/09/30 05:18:44;;;;;;;17.2;22.4;;;;;;;11;90;98080;;;;
2022/09/30 05:29:46;;;;;;;17.2;22.4;;;;;;;11.1;90.1;98090;;;;
2022/09/30 05:40:42;;;;;;;17.4;20.6;;;;;;;11.1;90.3;98090;;;;
2022/09/30 05:51:42;;;;;;;17.4;20.6;;;;;;;11.3;90.1;98090;;;;
2022/09/30 06:01:42;;;;;;;17.4;20.6;;;;;;;11.4;90.1;98100;;;;
2022/09/30 06:12:42;;;;;;;16.3;22.9;;;;;;;11.4;90;98110;;;;
2022/09/30 06:22:42;;;;;;;16.3;22.9;;;;;;;11.5;90;98110;;;;
2022/09/30 06:32:42;;;;;;;16.3;22.9;;;;;;;11.6;90;98110;;;;
2022/09/30 06:43:42;;;;;;;19.4;24.6;;;;;;;11.6;89.9;98110;;;;
2022/09/30 06:53:42;;;;;;;19.4;24.6;;;;;;;11.7;90.1;98100;;;;
2022/09/30 07:03:43;;;;;;;19.4;24.6;;;;;;;11.8;89.9;98110;;;;
2022/09/30 07:14:42;;;;;;;19.5;25.2;;;;;;;12;89.2;98120;;;;
2022/09/30 07:25:42;;;;;;;19.5;25.2;;;;;;;11.9;88.8;98140;;;;
2022/09/30 07:36:42;;;;;;;19.5;25.2;;;;;;;12;88.9;98150;;;;
2022/09/30 07:47:42;;;;;;;19.3;23.2;;;;;;;12;89.1;98140;;;;
2022/09/30 07:58:42;;;;;;;19.3;23.2;;;;;;;12.1;89;98150;;;;
2022/09/30 08:08:42;;;;;;;17.2;22.7;;;;;;;12.1;88.8;98150;;;;
2022/09/30 08:18:42;;;;;;;17.2;22.7;;;;;;;12.2;88.6;98160;;;;
2022/09/30 08:28:42;;;;;;;17.2;22.7;;;;;;;12.3;88.3;98160;;;;
2022/09/30 08:39:42;;;;;;;17.9;20.8;;;;;;;12.3;88.4;98170;;;;
2022/09/30 08:50:42;;;;;;;17.9;20.8;;;;;;;12.4;88.3;98170;;;;
2022/09/30 09:00:42;;;;;;;17.9;20.8;;;;;;;12.5;88.3;98170;;;;
2022/09/30 09:10:43;;;;;;;17.7;20.4;;;;;;;12.6;88.3;98170;;;;
2022/09/30 09:21:42;;;;;;;17.7;20.4;;;;;;;12.6;88.1;98160;;;;
2022/09/30 09:32:42;;;;;;;17.7;20.4;;;;;;;12.8;88;98170;;;;
2022/09/30 09:42:42;;;;;;;15.2;17.6;;;;;;;12.8;87.7;98190;;;;
2022/09/30 09:53:42;;;;;;;15.2;17.6;;;;;;;12.7;87.8;98190;;;;
2022/09/30 10:03:42;;;;;;;15.2;17.6;;;;;;;13.1;87.6;98200;;;;
2022/09/30 10:13:42;;;;;;;12.9;15.6;;;;;;;13.2;87;98200;;;;
2022/09/30 10:24:42;;;;;;;12.9;15.6;;;;;;;13.2;86.8;98210;;;;
2022/09/30 10:35:42;;;;;;;12.9;15.6;;;;;;;13.5;86.5;98220;;;;
2022/09/30 10:46:43;;;;;;;13.4;14.9;;;;;;;13.5;86.1;98230;;;;
2022/09/30 10:57:42;;;;;;;13.4;14.9;;;;;;;13.7;85.8;98240;;;;
2022/09/30 11:08:42;;;;;;;10.3;15.1;;;;;;;13.9;85.9;98240;;;;
2022/09/30 11:19:42;;;;;;;10.3;15.1;;;;;;;13.9;85.2;98250;;;;
2022/09/30 11:29:42;;;;;;;10.3;15.1;;;;;;;14;84.8;98250;;;;
2022/09/30 11:40:42;;;;;;;8.7;13.5;;;;;;;14.3;84.5;98250;;;;
2022/09/30 11:50:42;;;;;;;8.7;13.5;;;;;;;14.5;83.7;98260;;;;
2022/09/30 12:00:42;;;;;;;8.7;13.5;;;;;;;14.4;83.1;98260;;;;
2022/09/30 12:11:42;;;;;;;11.4;15.6;;;;;;;14.4;83;98260;;;;
2022/09/30 12:22:42;;;;;;;11.4;15.6;;;;;;;14.5;82.8;98270;;;;
2022/09/30 12:33:42;;;;;;;11.4;15.6;;;;;;;14.6;83.2;98270;;;;
2022/09/30 12:44:42;;;;;;;9;12.1;;;;;;;14.4;82.7;98280;;;;
2022/09/30 12:54:42;;;;;;;9;12.1;;;;;;;14.5;83.4;98300;;;;
2022/09/30 13:04:43;;;;;;;9;12.1;;;;;;;14.5;83.5;98310;;;;
2022/09/30 13:15:42;;;;;;;7.5;9.3;;;;;;;14.6;83.7;98330;;;;
2022/09/30 13:25:43;;;;;;;7.5;9.3;;;;;;;14.6;83.1;98340;;;;
2022/09/30 13:36:42;;;;;;;7.5;9.3;;;;;;;14.2;84.2;98340;;;;
2022/09/30 13:46:42;;;;;;;6.8;9.7;;;;;;;14.4;84.7;98340;;;;
2022/09/30 13:56:42;;;;;;;6.8;9.7;;;;;;;14.9;83.4;98340;;;;
2022/09/30 14:07:42;;;;;;;6.4;8.3;;;;;;;15.4;81.9;98330;;;;
2022/09/30 14:17:42;;;;;;;6.4;8.3;;;;;;;15.3;81.1;98350;;;;
2022/09/30 14:28:42;;;;;;;6.4;8.3;;;;;;;15.1;81.4;98360;;;;
2022/09/30 14:38:42;;;;;;;6.7;9.6;;;;;;;15;81.8;98370;;;;
2022/09/30 14:49:42;;;;;;;6.7;9.6;;;;;;;14.7;82.3;98370;;;;
2022/09/30 15:00:42;;;;;;;6.7;9.6;;;;;;;14.6;82.9;98380;;;;
2022/09/30 15:10:42;;;;;;;7.5;9.8;;;;;;;14.5;83.3;98390;;;;
2022/09/30 15:20:42;;;;;;;7.5;9.8;;;;;;;14.4;83.7;98390;;;;
2022/09/30 15:31:42;;;;;;;7.5;9.8;;;;;;;14.5;84.3;98420;;;;
2022/09/30 15:41:42;;;;;;;9.8;13;;;;;;;14.4;84;98420;;;;
2022/09/30 15:52:43;;;;;;;9.8;13;;;;;;;14.2;84.7;98430;;;;
2022/09/30 16:02:42;;;;;;;9.8;13;;;;;;;14.1;84.7;98440;;;;
2022/09/30 16:12:48;;;;;;;9.1;11.5;;;;;;;14.1;84.7;98430;;;;
2022/09/30 16:22:42;;;;;;;9.1;11.5;;;;;;;13.8;84.7;98440;;;;
2022/09/30 16:33:42;;;;;;;9.1;11.5;;;;;;;13.7;85.1;98470;;;;
2022/09/30 16:43:42;;;;;;;8.7;12;;;;;;;13.8;85.4;98480;;;;
2022/09/30 16:53:42;;;;;;;8.7;12;;;;;;;13.8;85.2;98480;;;;
2022/09/30 17:04:44;;;;;;;8.7;12;;;;;;;13.8;85.3;98480;;;;
2022/09/30 17:14:42;;;;;;;11.1;13.1;;;;;;;13.6;85.1;98490;;;;
2022/09/30 17:25:42;;;;;;;11.1;13.1;;;;;;;13.7;85.5;98490;;;;
2022/09/30 17:35:42;;;;;;;11.1;13.1;;;;;;;13.7;85.4;98490;;;;
2022/09/30 17:46:42;;;;;;;15.1;18.3;;;;;;;13.7;85.5;98530;;;;
2022/09/30 17:56:43;;;;;;;15.1;18.3;;;;;;;13.6;85.9;98530;;;;
2022/09/30 18:07:42;;;;;;;12.3;14.2;;;;;;;13.6;86.2;98550;;;;
2022/09/30 18:18:42;;;;;;;12.3;14.2;;;;;;;13.5;86.6;98560;;;;
2022/09/30 18:28:43;;;;;;;12.3;14.2;;;;;;;13.5;86.9;98560;;;;
2022/09/30 18:38:42;;;;;;;14;17.1;;;;;;;13.5;86.9;98570;;;;
2022/09/30 18:48:43;;;;;;;14;17.1;;;;;;;13.4;86.8;98570;;;;
2022/09/30 18:58:42;;;;;;;14;17.1;;;;;;;13.4;87.1;98570;;;;
2022/09/30 19:09:45;;;;;;;15.2;17.4;;;;;;;13.4;86.9;98580;;;;
2022/09/30 19:19:44;;;;;;;15.2;17.4;;;;;;;13.2;87.5;98580;;;;
2022/09/30 19:29:42;;;;;;;15.2;17.4;;;;;;;13.3;87.8;98570;;;;
2022/09/30 19:39:42;;;;;;;18.5;22.6;;;;;;;13.4;87.4;98570;;;;
2022/09/30 19:49:42;;;;;;;18.5;22.6;;;;;;;13.4;87.2;98570;;;;
2022/09/30 20:00:45;;;;;;;18.5;22.6;;;;;;;13.5;86.9;98570;;;;
2022/09/30 20:10:42;;;;;;;21.3;23.8;;;;;;;13.4;86.7;98590;;;;
2022/09/30 20:20:44;;;;;;;21.3;23.8;;;;;;;13.3;87.3;98590;;;;
2022/09/30 20:31:42;;;;;;;21.3;23.8;;;;;;;13.3;87.2;98590;;;;
2022/09/30 20:41:44;;;;;;;22.5;25.4;;;;;;;13.2;87.5;98600;;;;
2022/09/30 20:52:42;;;;;;;22.5;25.4;;;;;;;13.1;87.6;98600;;;;
2022/09/30 21:02:42;;;;;;;22.5;25.4;;;;;;;13.1;87.8;98610;;;;
2022/09/30 21:12:42;;;;;;;17.1;23.2;;;;;;;13.1;87.9;98610;;;;
2022/09/30 21:23:42;;;;;;;17.1;23.2;;;;;;;13;88.1;98600;;;;
2022/09/30 21:34:42;;;;;;;17.1;23.2;;;;;;;13;87.9;98600;;;;
2022/09/30 21:44:42;;;;;;;18.6;24.3;;;;;;;13.1;88;98590;;;;
2022/09/30 21:55:45;;;;;;;18.6;24.3;;;;;;;13.1;87.7;98600;;;;
2022/09/30 22:06:44;;;;;;;18.6;24.3;;;;;;;13;87.7;98600;;;;
2022/09/30 22:16:43;;;;;;;18.5;22.4;;;;;;;13;87.7;98590;;;;
2022/09/30 22:27:42;;;;;;;18.5;22.4;;;;;;;12.9;87.4;98590;;;;
2022/09/30 22:38:13;;;;;;;18.9;21.1;;;;;;;12.7;87.8;98580;;;;
2022/09/30 22:48:43;;;;;;;18.9;21.1;;;;;;;12.7;87.5;98580;;;;
2022/09/30 22:58:43;;;;;;;18.9;21.1;;;;;;;12.5;87.5;98600;;;;
2022/09/30 23:09:42;;;;;;;20.7;26.9;;;;;;;12.4;87.6;98590;;;;
2022/09/30 23:19:42;;;;;;;20.7;26.9;;;;;;;12.2;88.2;98580;;;;
2022/09/30 23:30:42;;;;;;;20.7;26.9;;;;;;;12.2;88.7;98600;;;;
2022/09/30 23:40:42;;;;;;;21.2;26.1;;;;;;;12.2;88.9;98600;;;;
2022/09/30 23:50:42;;;;;;;21.2;26.1;;;;;;;12.3;88.8;98590;;;;
